Time;durP1;ratioP1;P1;durP2;ratioP2;P2;SDS_P1;SDS_P2;PMS_P1;PMS_P2;Temp;Humidity;BMP_temperature;BMP_pressure;BME280_temperature;BME280_humidity;BME280_pressure;Samples;Min_cycle;Max_cycle;Signal;HPM_P1;HPM_P2
2024/01/28 00:01:18;;;;;;;12.23;5.15;;;;;;;;;;5032054;28;20148;-80
2024/01/28 00:03:43;;;;;;;8.35;4.60;;;;;;;;;;5033567;28;20391;-80
2024/01/28 00:06:09;;;;;;;9.38;4.90;;;;;;;;;;5034197;28;20530;-80
2024/01/28 00:08:34;;;;;;;11.20;4.70;;;;;;;;;;5024062;28;20068;-81
2024/01/28 00:11:00;;;;;;;13.50;5.20;;;;;;;;;;5025384;28;20030;-81
2024/01/28 00:13:25;;;;;;;12.85;5.18;;;;;;;;;;5030392;28;20121;-81
2024/01/28 00:15:54;;;;;;;10.32;5.28;;;;;;;;;;5031629;28;20403;-81
2024/01/28 00:18:20;;;;;;;11.27;4.90;;;;;;;;;;5030100;28;20442;-81
2024/01/28 00:20:46;;;;;;;13.73;5.00;;;;;;;;;;5025791;28;20034;-81
2024/01/28 00:23:12;;;;;;;13.45;5.25;;;;;;;;;;5029307;28;20061;-81
2024/01/28 00:25:37;;;;;;;14.48;4.93;;;;;;;;;;5030828;28;20488;-81
2024/01/28 00:28:03;;;;;;;11.65;5.80;;;;;;;;;;5029511;28;20467;-80
2024/01/28 00:30:32;;;;;;;14.98;5.45;;;;;;;;;;5028157;28;20029;-80
2024/01/28 00:32:58;;;;;;;13.38;5.20;;;;;;;;;;5031024;28;20029;-80
2024/01/28 00:35:23;;;;;;;9.98;5.22;;;;;;;;;;5029541;28;20116;-80
2024/01/28 00:37:48;;;;;;;13.57;5.32;;;;;;;;;;5014741;28;20105;-81
2024/01/28 00:40:14;;;;;;;11.57;5.57;;;;;;;;;;5027540;28;20057;-80
2024/01/28 00:42:39;;;;;;;13.50;5.53;;;;;;;;;;5026395;28;20044;-80
2024/01/28 00:45:05;;;;;;;11.45;5.53;;;;;;;;;;5025202;28;20488;-81
2024/01/28 00:47:31;;;;;;;15.23;6.13;;;;;;;;;;5024654;28;20026;-81
2024/01/28 00:49:56;;;;;;;11.57;5.80;;;;;;;;;;5025855;28;20404;-81
2024/01/28 00:52:21;;;;;;;12.00;5.70;;;;;;;;;;5026356;28;20027;-81
2024/01/28 00:54:47;;;;;;;12.85;6.05;;;;;;;;;;5022000;28;20036;-81
2024/01/28 00:57:12;;;;;;;14.18;6.03;;;;;;;;;;5023403;28;20053;-81
2024/01/28 00:59:37;;;;;;;14.73;6.53;;;;;;;;;;5009168;28;20492;-81
2024/01/28 01:02:03;;;;;;;13.10;6.20;;;;;;;;;;5031579;28;20088;-81
2024/01/28 01:04:29;;;;;;;13.38;6.18;;;;;;;;;;5022111;28;20475;-81
2024/01/28 01:06:54;;;;;;;12.23;6.30;;;;;;;;;;5025592;28;20029;-81
2024/01/28 01:09:19;;;;;;;12.45;6.20;;;;;;;;;;5034963;28;20033;-81
2024/01/28 01:11:45;;;;;;;14.60;6.63;;;;;;;;;;5026087;28;20124;-80
2024/01/28 01:14:11;;;;;;;13.70;5.68;;;;;;;;;;5030597;28;20146;-81
2024/01/28 01:16:36;;;;;;;11.52;6.07;;;;;;;;;;5020655;28;20376;-81
2024/01/28 01:19:02;;;;;;;11.93;6.20;;;;;;;;;;5024183;28;20431;-81
2024/01/28 01:21:28;;;;;;;11.63;6.18;;;;;;;;;;5027533;28;20030;-81
2024/01/28 01:23:53;;;;;;;17.10;6.53;;;;;;;;;;5026424;28;20099;-81
2024/01/28 01:26:19;;;;;;;11.75;6.22;;;;;;;;;;5026737;28;20033;-81
2024/01/28 01:28:44;;;;;;;11.77;6.50;;;;;;;;;;5034406;28;20082;-81
2024/01/28 01:31:09;;;;;;;15.20;6.40;;;;;;;;;;5024591;28;20057;-81
2024/01/28 01:33:35;;;;;;;11.60;6.32;;;;;;;;;;5013784;28;20073;-81
2024/01/28 01:36:01;;;;;;;12.57;6.80;;;;;;;;;;5026903;28;20026;-80
2024/01/28 01:38:26;;;;;;;15.90;6.35;;;;;;;;;;5024948;28;20124;-81
2024/01/28 01:40:52;;;;;;;11.88;6.38;;;;;;;;;;5024731;28;20225;-81
2024/01/28 01:43:17;;;;;;;13.77;6.95;;;;;;;;;;5022988;28;20104;-80
2024/01/28 01:45:43;;;;;;;12.38;6.88;;;;;;;;;;5024670;28;20033;-81
2024/01/28 01:48:11;;;;;;;13.05;6.68;;;;;;;;;;5013585;28;20472;-81
2024/01/28 01:50:41;;;;;;;15.88;7.10;;;;;;;;;;5025125;28;20053;-81
2024/01/28 01:53:08;;;;;;;15.57;7.00;;;;;;;;;;5031517;28;20033;-80
2024/01/28 01:55:35;;;;;;;11.70;6.50;;;;;;;;;;5005165;28;20064;-80
2024/01/28 01:58:03;;;;;;;15.85;6.63;;;;;;;;;;5017449;28;20392;-81
2024/01/28 02:00:29;;;;;;;14.68;6.88;;;;;;;;;;5029409;28;20026;-80
2024/01/28 02:02:54;;;;;;;16.25;6.85;;;;;;;;;;5017752;28;20116;-80
2024/01/28 02:05:19;;;;;;;10.45;6.47;;;;;;;;;;5026957;28;20502;-80
2024/01/28 02:07:45;;;;;;;14.45;7.07;;;;;;;;;;5021370;28;20041;-80
2024/01/28 02:10:10;;;;;;;12.63;6.55;;;;;;;;;;5023461;28;20506;-80
2024/01/28 02:12:36;;;;;;;15.68;6.85;;;;;;;;;;5020615;28;20549;-80
2024/01/28 02:15:09;;;;;;;13.82;6.55;;;;;;;;;;5021141;28;20496;-80
2024/01/28 02:17:34;;;;;;;13.48;6.28;;;;;;;;;;5027624;28;20033;-80
2024/01/28 02:20:00;;;;;;;14.38;6.80;;;;;;;;;;5026030;28;20045;-80
2024/01/28 02:22:25;;;;;;;13.32;6.70;;;;;;;;;;5024076;28;20038;-80
2024/01/28 02:24:51;;;;;;;11.20;6.70;;;;;;;;;;5021180;28;20036;-80
2024/01/28 02:27:16;;;;;;;14.93;6.93;;;;;;;;;;5020474;28;20079;-80
2024/01/28 02:29:42;;;;;;;14.15;6.60;;;;;;;;;;5030200;28;20029;-80
2024/01/28 02:32:10;;;;;;;14.77;6.60;;;;;;;;;;5027692;28;20033;-80
2024/01/28 02:34:36;;;;;;;16.48;6.72;;;;;;;;;;5023221;28;20036;-80
2024/01/28 02:37:01;;;;;;;13.90;7.25;;;;;;;;;;5021230;28;20025;-81
2024/01/28 02:39:27;;;;;;;13.85;6.65;;;;;;;;;;5018467;28;20105;-80
2024/01/28 02:41:53;;;;;;;13.57;6.40;;;;;;;;;;5021314;28;20033;-80
2024/01/28 02:44:18;;;;;;;13.90;6.80;;;;;;;;;;5027746;28;20052;-80
2024/01/28 02:46:44;;;;;;;13.65;6.57;;;;;;;;;;5016200;28;20032;-80
2024/01/28 02:49:09;;;;;;;13.48;7.07;;;;;;;;;;5020173;28;20097;-80
2024/01/28 02:51:35;;;;;;;16.33;6.72;;;;;;;;;;5027430;28;20099;-80
2024/01/28 02:54:01;;;;;;;13.18;6.60;;;;;;;;;;5023292;28;20025;-80
2024/01/28 02:56:27;;;;;;;9.88;6.13;;;;;;;;;;5023558;28;20026;-80
2024/01/28 02:58:53;;;;;;;13.65;6.22;;;;;;;;;;5019308;28;20021;-80
2024/01/28 03:01:19;;;;;;;14.23;6.45;;;;;;;;;;5026414;28;20032;-80
2024/01/28 03:03:45;;;;;;;12.18;6.53;;;;;;;;;;5025582;28;20025;-80
2024/01/28 03:06:11;;;;;;;14.75;6.57;;;;;;;;;;5024368;28;20388;-80
2024/01/28 03:08:37;;;;;;;16.30;6.70;;;;;;;;;;5024105;28;20025;-81
2024/01/28 03:11:02;;;;;;;13.88;6.20;;;;;;;;;;5030188;28;20025;-81
2024/01/28 03:13:28;;;;;;;13.85;6.07;;;;;;;;;;5023790;28;20029;-81
2024/01/28 03:15:55;;;;;;;14.80;6.60;;;;;;;;;;5020361;28;20396;-81
2024/01/28 03:18:21;;;;;;;15.88;5.93;;;;;;;;;;5022226;28;20025;-81
2024/01/28 03:20:47;;;;;;;11.35;6.28;;;;;;;;;;5020514;28;20061;-81
2024/01/28 03:23:14;;;;;;;12.95;6.75;;;;;;;;;;5022910;28;20064;-81
2024/01/28 03:25:40;;;;;;;14.02;5.80;;;;;;;;;;5020609;28;20560;-81
2024/01/28 03:28:06;;;;;;;15.13;6.20;;;;;;;;;;5029131;28;20119;-81
2024/01/28 03:30:31;;;;;;;13.25;6.15;;;;;;;;;;5026770;28;22069;-81
2024/01/28 03:32:57;;;;;;;18.55;6.35;;;;;;;;;;5023802;28;20041;-81
2024/01/28 03:35:22;;;;;;;14.30;6.25;;;;;;;;;;5014820;28;20033;-81
2024/01/28 03:37:48;;;;;;;14.80;5.97;;;;;;;;;;5029668;28;20030;-81
2024/01/28 03:40:14;;;;;;;13.60;6.07;;;;;;;;;;5021888;28;20386;-81
2024/01/28 03:42:39;;;;;;;11.90;6.25;;;;;;;;;;5020696;28;20038;-81
2024/01/28 03:45:05;;;;;;;10.38;5.45;;;;;;;;;;5018463;28;20080;-81
2024/01/28 03:47:32;;;;;;;11.73;5.70;;;;;;;;;;5018220;28;20036;-81
2024/01/28 03:49:57;;;;;;;8.25;5.25;;;;;;;;;;5027803;28;20026;-80
2024/01/28 03:52:23;;;;;;;13.40;5.97;;;;;;;;;;5017915;28;20030;-81
2024/01/28 03:54:49;;;;;;;11.40;5.32;;;;;;;;;;5022196;28;20520;-81
2024/01/28 03:57:14;;;;;;;12.00;5.38;;;;;;;;;;5022795;28;20034;-80
2024/01/28 03:59:40;;;;;;;13.45;5.55;;;;;;;;;;5017995;28;20091;-81
2024/01/28 04:02:07;;;;;;;12.27;5.53;;;;;;;;;;5022853;28;20151;-81
2024/01/28 04:04:33;;;;;;;12.43;5.63;;;;;;;;;;5021186;28;20032;-81
2024/01/28 04:06:58;;;;;;;13.65;5.43;;;;;;;;;;5016872;28;20022;-80
2024/01/28 04:09:24;;;;;;;13.07;5.40;;;;;;;;;;5017488;28;20018;-81
2024/01/28 04:11:50;;;;;;;13.85;5.60;;;;;;;;;;5021681;28;20035;-81
2024/01/28 04:14:15;;;;;;;8.57;4.80;;;;;;;;;;5023239;28;20035;-81
2024/01/28 04:16:41;;;;;;;13.55;5.50;;;;;;;;;;5016164;28;20053;-80
2024/01/28 04:19:06;;;;;;;13.63;5.90;;;;;;;;;;5021362;28;20160;-80
2024/01/28 04:21:32;;;;;;;14.55;5.45;;;;;;;;;;5021354;28;20042;-80
2024/01/28 04:23:58;;;;;;;12.20;5.43;;;;;;;;;;5026768;28;20620;-80
2024/01/28 04:26:24;;;;;;;12.70;5.95;;;;;;;;;;5028986;28;20053;-80
2024/01/28 04:28:49;;;;;;;16.33;5.40;;;;;;;;;;5028060;28;20041;-80
2024/01/28 04:31:15;;;;;;;13.95;5.68;;;;;;;;;;5028950;28;20033;-81
2024/01/28 04:33:44;;;;;;;14.57;5.70;;;;;;;;;;5027790;28;20025;-80
2024/01/28 04:36:10;;;;;;;12.70;5.63;;;;;;;;;;5028788;28;20026;-80
2024/01/28 04:38:35;;;;;;;11.32;5.57;;;;;;;;;;5032592;28;20059;-80
2024/01/28 04:41:01;;;;;;;12.13;5.65;;;;;;;;;;5027381;28;20488;-81
2024/01/28 04:43:26;;;;;;;9.18;5.25;;;;;;;;;;5027060;28;20458;-80
2024/01/28 04:45:52;;;;;;;10.52;5.05;;;;;;;;;;5023298;28;20472;-80
2024/01/28 04:48:21;;;;;;;13.55;5.57;;;;;;;;;;5011263;28;20563;-80
2024/01/28 04:50:47;;;;;;;9.90;5.57;;;;;;;;;;5027648;28;20037;-80
2024/01/28 04:53:12;;;;;;;14.82;5.82;;;;;;;;;;5034919;28;20468;-80
2024/01/28 04:55:38;;;;;;;12.00;5.53;;;;;;;;;;5021014;28;20480;-80
2024/01/28 04:58:03;;;;;;;13.40;5.85;;;;;;;;;;5021520;28;20026;-80
2024/01/28 05:00:29;;;;;;;12.63;5.32;;;;;;;;;;5024044;28;20033;-80
2024/01/28 05:02:56;;;;;;;14.95;5.38;;;;;;;;;;5010330;28;20026;-80
2024/01/28 05:05:22;;;;;;;9.23;5.20;;;;;;;;;;5024697;28;20030;-80
2024/01/28 05:07:48;;;;;;;12.15;5.75;;;;;;;;;;5031174;28;20036;-80
2024/01/28 05:10:14;;;;;;;14.07;6.30;;;;;;;;;;5036156;28;20025;-80
2024/01/28 05:12:39;;;;;;;13.77;6.20;;;;;;;;;;5030721;28;20499;-80
2024/01/28 05:15:06;;;;;;;10.38;5.28;;;;;;;;;;5026584;28;20480;-80
2024/01/28 05:17:33;;;;;;;13.43;6.03;;;;;;;;;;5028630;28;20045;-80
2024/01/28 05:19:59;;;;;;;15.25;5.80;;;;;;;;;;5027866;28;20377;-80
2024/01/28 05:22:24;;;;;;;12.25;5.60;;;;;;;;;;5032843;28;20036;-80
2024/01/28 05:24:54;;;;;;;12.27;5.72;;;;;;;;;;5021833;28;20034;-80
2024/01/28 05:27:21;;;;;;;13.63;6.45;;;;;;;;;;5030293;28;20030;-80
2024/01/28 05:29:46;;;;;;;13.88;5.63;;;;;;;;;;5028729;28;20034;-80
2024/01/28 05:32:12;;;;;;;11.80;5.85;;;;;;;;;;5023158;28;20450;-80
2024/01/28 05:34:38;;;;;;;12.02;5.70;;;;;;;;;;5024016;28;20483;-80
2024/01/28 05:37:03;;;;;;;13.70;5.97;;;;;;;;;;5019417;28;20076;-80
2024/01/28 05:39:29;;;;;;;12.73;5.95;;;;;;;;;;5024922;28;20476;-80
2024/01/28 05:41:54;;;;;;;12.05;5.90;;;;;;;;;;5022560;28;20096;-80
2024/01/28 05:44:21;;;;;;;10.95;5.80;;;;;;;;;;5017163;28;20026;-80
2024/01/28 05:46:46;;;;;;;13.27;5.90;;;;;;;;;;5026094;28;20052;-80
2024/01/28 05:49:12;;;;;;;13.77;5.85;;;;;;;;;;5023111;28;20057;-80
2024/01/28 05:51:39;;;;;;;13.63;5.78;;;;;;;;;;5026453;28;20480;-80
2024/01/28 05:54:05;;;;;;;13.77;6.00;;;;;;;;;;5023489;28;20140;-80
2024/01/28 05:56:31;;;;;;;13.13;5.97;;;;;;;;;;5028173;28;20033;-80
2024/01/28 05:58:56;;;;;;;13.10;5.80;;;;;;;;;;5019363;28;20027;-80
2024/01/28 06:01:21;;;;;;;12.93;5.90;;;;;;;;;;5013441;28;20043;-80
2024/01/28 06:03:47;;;;;;;15.32;5.70;;;;;;;;;;5024847;28;20029;-80
2024/01/28 06:06:14;;;;;;;11.30;5.50;;;;;;;;;;5032851;28;20029;-80
2024/01/28 06:08:41;;;;;;;12.98;6.38;;;;;;;;;;5022020;28;20068;-80
2024/01/28 06:11:07;;;;;;;12.48;5.60;;;;;;;;;;5029191;28;20692;-80
2024/01/28 06:13:32;;;;;;;13.63;6.10;;;;;;;;;;5013015;28;20040;-80
2024/01/28 06:15:57;;;;;;;10.48;5.13;;;;;;;;;;5015696;28;20038;-80
2024/01/28 06:18:23;;;;;;;11.00;6.00;;;;;;;;;;5034079;28;20052;-80
2024/01/28 06:20:48;;;;;;;11.13;5.68;;;;;;;;;;5020505;28;20025;-80
2024/01/28 06:23:14;;;;;;;12.65;6.03;;;;;;;;;;5024336;28;20104;-80
2024/01/28 06:25:39;;;;;;;12.70;6.10;;;;;;;;;;5023513;28;20032;-80
2024/01/28 06:28:05;;;;;;;12.35;5.68;;;;;;;;;;5027109;28;20022;-80
2024/01/28 06:30:32;;;;;;;14.98;6.00;;;;;;;;;;5027650;28;20033;-80
2024/01/28 06:32:58;;;;;;;11.48;5.90;;;;;;;;;;5026950;28;20513;-80
2024/01/28 06:35:23;;;;;;;14.90;6.05;;;;;;;;;;5032173;28;20033;-80
2024/01/28 06:37:49;;;;;;;12.40;5.82;;;;;;;;;;5040800;28;20532;-80
2024/01/28 06:40:14;;;;;;;14.40;5.78;;;;;;;;;;5029123;28;20387;-80
2024/01/28 06:42:39;;;;;;;11.93;5.90;;;;;;;;;;5031213;28;20108;-80
2024/01/28 06:45:07;;;;;;;12.73;6.07;;;;;;;;;;5023539;28;20368;-80
2024/01/28 06:47:33;;;;;;;13.05;5.80;;;;;;;;;;5023299;28;20098;-80
2024/01/28 06:49:58;;;;;;;10.95;5.65;;;;;;;;;;5024791;28;20112;-80
2024/01/28 06:52:24;;;;;;;13.88;6.00;;;;;;;;;;5026787;28;20365;-80
2024/01/28 06:54:49;;;;;;;10.13;5.75;;;;;;;;;;5028022;28;20075;-80
2024/01/28 06:57:14;;;;;;;11.77;5.53;;;;;;;;;;5023649;28;20088;-80
2024/01/28 06:59:43;;;;;;;13.60;5.65;;;;;;;;;;5026083;28;20021;-80
2024/01/28 07:02:09;;;;;;;13.75;5.78;;;;;;;;;;5034151;28;20021;-80
2024/01/28 07:04:34;;;;;;;12.82;5.88;;;;;;;;;;5023627;28;20030;-80
2024/01/28 07:07:00;;;;;;;11.52;5.53;;;;;;;;;;5029348;28;20079;-80
2024/01/28 07:09:25;;;;;;;10.82;5.53;;;;;;;;;;5019480;28;20510;-80
2024/01/28 07:11:51;;;;;;;11.00;6.30;;;;;;;;;;5023213;28;20037;-80
2024/01/28 07:14:17;;;;;;;12.38;5.63;;;;;;;;;;5021508;28;20029;-80
2024/01/28 07:16:42;;;;;;;11.48;6.05;;;;;;;;;;5024717;28;20039;-80
2024/01/28 07:19:08;;;;;;;13.20;5.43;;;;;;;;;;5014764;28;20024;-80
2024/01/28 07:21:33;;;;;;;13.48;6.03;;;;;;;;;;5036157;28;20556;-80
2024/01/28 07:23:59;;;;;;;12.98;5.75;;;;;;;;;;5026309;28;20434;-80
2024/01/28 07:26:25;;;;;;;11.38;6.13;;;;;;;;;;5024521;28;20037;-80
2024/01/28 07:28:51;;;;;;;11.70;5.75;;;;;;;;;;5020150;28;20030;-80
2024/01/28 07:31:16;;;;;;;12.82;5.93;;;;;;;;;;5029334;28;20395;-80
2024/01/28 07:33:42;;;;;;;11.27;6.07;;;;;;;;;;5026846;28;20120;-80
2024/01/28 07:36:08;;;;;;;9.18;5.50;;;;;;;;;;5033269;28;20026;-80
2024/01/28 07:38:34;;;;;;;11.70;5.45;;;;;;;;;;5022498;28;20083;-80
2024/01/28 07:40:59;;;;;;;9.82;5.97;;;;;;;;;;5024702;28;20037;-80
2024/01/28 07:43:25;;;;;;;11.88;5.85;;;;;;;;;;5029298;28;20025;-80
2024/01/28 07:45:50;;;;;;;10.77;5.97;;;;;;;;;;5027689;28;20574;-80
2024/01/28 07:48:19;;;;;;;12.60;6.05;;;;;;;;;;5026979;28;20033;-80
2024/01/28 07:50:47;;;;;;;11.88;6.00;;;;;;;;;;5027205;28;20026;-80
2024/01/28 07:53:13;;;;;;;15.23;6.50;;;;;;;;;;5023920;28;20033;-79
2024/01/28 07:55:38;;;;;;;12.70;6.72;;;;;;;;;;5029058;28;20039;-79
2024/01/28 07:58:04;;;;;;;12.35;5.82;;;;;;;;;;5030991;28;20032;-79
2024/01/28 08:00:31;;;;;;;9.65;5.28;;;;;;;;;;5026789;28;20055;-79
2024/01/28 08:02:57;;;;;;;14.55;6.03;;;;;;;;;;5026424;28;20033;-79
2024/01/28 08:05:22;;;;;;;13.35;5.97;;;;;;;;;;5027267;28;20029;-79
2024/01/28 08:07:48;;;;;;;10.15;6.15;;;;;;;;;;5026066;28;20026;-79
2024/01/28 08:10:13;;;;;;;14.02;6.07;;;;;;;;;;5034265;28;20025;-79
2024/01/28 08:12:38;;;;;;;10.43;5.97;;;;;;;;;;5033705;28;20017;-79
2024/01/28 08:15:04;;;;;;;12.65;6.57;;;;;;;;;;5035736;28;20105;-79
2024/01/28 08:17:30;;;;;;;13.23;5.70;;;;;;;;;;5034094;28;20037;-79
2024/01/28 08:19:55;;;;;;;11.82;5.93;;;;;;;;;;5018685;28;20087;-79
2024/01/28 08:22:21;;;;;;;12.73;6.55;;;;;;;;;;5028444;28;20033;-79
2024/01/28 08:24:47;;;;;;;11.55;6.10;;;;;;;;;;5031475;28;20405;-79
2024/01/28 08:27:12;;;;;;;11.23;5.68;;;;;;;;;;5027178;28;20025;-79
2024/01/28 08:29:38;;;;;;;12.50;5.95;;;;;;;;;;5031939;28;20084;-79
2024/01/28 08:32:04;;;;;;;14.93;6.22;;;;;;;;;;5029173;28;20029;-79
2024/01/28 08:34:30;;;;;;;11.98;6.25;;;;;;;;;;5032506;28;20167;-79
2024/01/28 08:36:55;;;;;;;11.10;5.82;;;;;;;;;;5027586;28;20681;-79
2024/01/28 08:39:21;;;;;;;14.02;6.28;;;;;;;;;;5034720;28;20033;-78
2024/01/28 08:41:47;;;;;;;13.57;6.25;;;;;;;;;;5028003;28;20412;-79
2024/01/28 08:44:12;;;;;;;10.63;6.00;;;;;;;;;;5028834;28;20400;-79
2024/01/28 08:46:39;;;;;;;11.60;5.97;;;;;;;;;;5026053;28;20360;-79
2024/01/28 08:49:05;;;;;;;12.25;5.95;;;;;;;;;;5032833;28;20029;-79
2024/01/28 08:51:30;;;;;;;10.93;5.53;;;;;;;;;;5035339;28;20029;-79
2024/01/28 08:53:56;;;;;;;14.30;5.93;;;;;;;;;;5029333;28;20038;-79
2024/01/28 08:56:22;;;;;;;12.20;5.63;;;;;;;;;;5019655;28;20067;-79
2024/01/28 08:58:48;;;;;;;11.77;5.80;;;;;;;;;;5025114;28;20038;-79
2024/01/28 09:01:13;;;;;;;11.07;5.43;;;;;;;;;;5023123;28;20021;-79
2024/01/28 09:03:39;;;;;;;13.07;5.70;;;;;;;;;;5025499;28;20065;-78
2024/01/28 09:06:06;;;;;;;10.48;5.18;;;;;;;;;;5020221;28;20476;-79
2024/01/28 09:08:31;;;;;;;11.40;5.70;;;;;;;;;;5021842;28;20028;-79
2024/01/28 09:10:57;;;;;;;10.27;5.32;;;;;;;;;;5027912;28;20081;-78
2024/01/28 09:13:25;;;;;;;12.52;6.22;;;;;;;;;;5031236;28;20382;-79
2024/01/28 09:15:51;;;;;;;11.20;5.55;;;;;;;;;;5022147;28;20032;-79
2024/01/28 09:18:17;;;;;;;12.27;5.80;;;;;;;;;;5021230;28;20061;-78
2024/01/28 09:20:42;;;;;;;10.85;5.65;;;;;;;;;;5021416;28;20431;-79
2024/01/28 09:23:08;;;;;;;10.82;5.65;;;;;;;;;;5023331;28;20112;-79
2024/01/28 09:25:34;;;;;;;15.32;5.78;;;;;;;;;;5012304;28;20320;-79
2024/01/28 09:27:59;;;;;;;12.45;5.47;;;;;;;;;;5023972;28;20033;-79
2024/01/28 09:30:25;;;;;;;11.43;5.82;;;;;;;;;;5022197;28;20762;-78
2024/01/28 09:32:51;;;;;;;10.98;5.82;;;;;;;;;;5031919;28;20555;-79
2024/01/28 09:35:16;;;;;;;11.68;5.32;;;;;;;;;;5020729;28;20079;-78
2024/01/28 09:37:42;;;;;;;8.80;5.40;;;;;;;;;;5025275;28;20095;-81
2024/01/28 09:40:10;;;;;;;12.20;6.13;;;;;;;;;;5021300;28;20571;-85
2024/01/28 09:42:43;;;;;;;9.65;5.57;;;;;;;;;;5024696;28;20634;-85
2024/01/28 09:45:10;;;;;;;11.98;5.90;;;;;;;;;;5020671;28;20044;-85
2024/01/28 09:47:36;;;;;;;12.55;5.63;;;;;;;;;;5023146;28;20125;-85
2024/01/28 09:50:04;;;;;;;9.45;5.65;;;;;;;;;;5018564;28;20029;-84
2024/01/28 09:52:29;;;;;;;10.20;5.80;;;;;;;;;;5040097;28;20045;-84
2024/01/28 09:54:55;;;;;;;11.05;5.47;;;;;;;;;;5023210;28;20032;-85
2024/01/28 09:57:21;;;;;;;10.68;5.13;;;;;;;;;;5041851;28;20049;-85
2024/01/28 09:59:47;;;;;;;12.63;5.60;;;;;;;;;;5029697;28;20041;-84
2024/01/28 10:02:14;;;;;;;8.80;5.18;;;;;;;;;;5031361;28;20487;-85
2024/01/28 10:04:40;;;;;;;7.63;4.78;;;;;;;;;;5024579;28;20301;-85
2024/01/28 10:07:09;;;;;;;9.93;5.60;;;;;;;;;;5034210;28;20027;-85
2024/01/28 10:09:34;;;;;;;8.18;5.03;;;;;;;;;;5022143;28;20033;-81
2024/01/28 10:12:01;;;;;;;9.95;4.72;;;;;;;;;;5013345;28;20653;-81
2024/01/28 10:14:27;;;;;;;10.45;5.35;;;;;;;;;;5022052;28;20116;-81
2024/01/28 10:16:54;;;;;;;10.85;4.95;;;;;;;;;;5030510;28;20075;-81
2024/01/28 10:19:20;;;;;;;9.77;4.90;;;;;;;;;;5025422;28;20033;-81
2024/01/28 10:21:46;;;;;;;8.85;4.93;;;;;;;;;;5025847;28;20051;-81
2024/01/28 10:24:12;;;;;;;9.43;4.65;;;;;;;;;;5023230;28;20041;-81
2024/01/28 10:26:39;;;;;;;9.10;4.55;;;;;;;;;;5028902;28;20029;-81
2024/01/28 10:29:09;;;;;;;11.57;5.20;;;;;;;;;;5026980;28;20041;-81
2024/01/28 10:31:36;;;;;;;10.27;4.50;;;;;;;;;;5006824;28;20039;-81
2024/01/28 10:34:01;;;;;;;8.57;4.70;;;;;;;;;;5029800;28;20056;-81
2024/01/28 10:36:27;;;;;;;9.35;4.75;;;;;;;;;;5030349;28;20045;-82
2024/01/28 10:39:00;;;;;;;10.18;5.20;;;;;;;;;;5021895;28;20044;-82
2024/01/28 10:41:26;;;;;;;10.25;4.75;;;;;;;;;;5034379;28;20089;-81
2024/01/28 10:44:01;;;;;;;8.00;4.60;;;;;;;;;;5025863;28;20033;-82
2024/01/28 10:46:38;;;;;;;12.23;5.10;;;;;;;;;;5026985;28;20590;-81
2024/01/28 10:49:06;;;;;;;7.63;4.72;;;;;;;;;;5031216;28;20045;-81
2024/01/28 10:51:42;;;;;;;10.57;4.82;;;;;;;;;;5030252;28;20490;-82
2024/01/28 10:54:11;;;;;;;10.20;4.85;;;;;;;;;;5030394;28;20464;-81
2024/01/28 10:56:38;;;;;;;10.27;4.68;;;;;;;;;;5033115;28;20103;-81
2024/01/28 10:59:06;;;;;;;9.55;4.65;;;;;;;;;;5026445;28;20049;-81
2024/01/28 11:01:33;;;;;;;10.07;5.10;;;;;;;;;;5032646;28;20025;-81
2024/01/28 11:04:00;;;;;;;12.88;4.93;;;;;;;;;;5033899;28;20028;-81
2024/01/28 11:06:27;;;;;;;7.50;4.53;;;;;;;;;;5031333;28;20049;-81
2024/01/28 11:08:55;;;;;;;8.32;4.78;;;;;;;;;;5027661;28;20045;-81
2024/01/28 11:11:21;;;;;;;9.57;4.68;;;;;;;;;;5028187;28;20056;-81
2024/01/28 11:13:47;;;;;;;9.95;4.60;;;;;;;;;;5029213;28;20494;-81
2024/01/28 11:16:14;;;;;;;9.07;4.65;;;;;;;;;;5026629;28;20037;-81
2024/01/28 11:18:40;;;;;;;8.55;4.25;;;;;;;;;;5032052;28;20045;-81
2024/01/28 11:21:13;;;;;;;8.00;4.05;;;;;;;;;;5025892;28;20395;-81
2024/01/28 11:23:43;;;;;;;9.40;4.20;;;;;;;;;;5019358;28;20437;-81
2024/01/28 11:26:14;;;;;;;6.68;3.90;;;;;;;;;;5028003;28;20038;-80
2024/01/28 11:28:50;;;;;;;9.95;4.07;;;;;;;;;;5023139;28;20037;-81
2024/01/28 11:31:37;;;;;;;8.55;3.90;;;;;;;;;;5027800;28;20491;-81
2024/01/28 11:34:19;;;;;;;8.25;3.80;;;;;;;;;;5030700;28;20124;-80
2024/01/28 11:36:54;;;;;;;10.27;3.92;;;;;;;;;;5038244;28;20033;-81
2024/01/28 11:39:48;;;;;;;9.15;4.32;;;;;;;;;;5028633;28;20041;-81
2024/01/28 11:42:17;;;;;;;7.65;4.07;;;;;;;;;;5023571;28;20430;-81
2024/01/28 11:44:43;;;;;;;7.80;3.88;;;;;;;;;;5020341;28;20087;-81
2024/01/28 11:47:17;;;;;;;9.48;3.85;;;;;;;;;;5024018;28;20036;-82
2024/01/28 11:49:45;;;;;;;9.40;4.10;;;;;;;;;;5030403;28;20041;-81
2024/01/28 11:52:12;;;;;;;9.40;4.53;;;;;;;;;;5025520;28;20105;-82
2024/01/28 11:54:37;;;;;;;7.85;4.18;;;;;;;;;;5027058;28;20040;-82
2024/01/28 11:57:05;;;;;;;9.50;4.88;;;;;;;;;;5023547;28;20030;-82
2024/01/28 11:59:33;;;;;;;7.63;4.25;;;;;;;;;;5026235;28;20025;-81
2024/01/28 12:01:59;;;;;;;8.23;4.32;;;;;;;;;;5026442;28;20136;-81
2024/01/28 12:04:25;;;;;;;9.15;4.30;;;;;;;;;;5024528;28;20113;-82
2024/01/28 12:06:51;;;;;;;8.23;4.30;;;;;;;;;;5024798;28;20112;-81
2024/01/28 12:09:17;;;;;;;7.45;4.28;;;;;;;;;;5015110;28;20735;-82
2024/01/28 12:11:42;;;;;;;9.73;4.80;;;;;;;;;;5030110;28;20108;-82
2024/01/28 12:14:08;;;;;;;9.52;4.72;;;;;;;;;;5023801;28;20476;-82
2024/01/28 12:16:35;;;;;;;6.75;4.20;;;;;;;;;;5005835;28;20029;-82
2024/01/28 12:19:00;;;;;;;7.13;4.03;;;;;;;;;;5019847;28;20143;-81
2024/01/28 12:21:29;;;;;;;11.50;4.75;;;;;;;;;;5035217;28;20560;-82
2024/01/28 12:24:09;;;;;;;7.53;4.40;;;;;;;;;;5022210;28;20377;-82
2024/01/28 12:26:35;;;;;;;9.02;4.00;;;;;;;;;;5020878;28;20057;-82
2024/01/28 12:29:02;;;;;;;8.30;4.57;;;;;;;;;;5024035;28;20056;-82
2024/01/28 12:31:27;;;;;;;9.48;4.40;;;;;;;;;;5025248;28;20068;-82
2024/01/28 12:33:53;;;;;;;9.57;4.22;;;;;;;;;;5023883;28;20679;-82
2024/01/28 12:36:19;;;;;;;8.23;3.83;;;;;;;;;;5013366;28;20120;-82
2024/01/28 12:38:45;;;;;;;8.93;4.20;;;;;;;;;;5012542;28;20498;-82
2024/01/28 12:41:11;;;;;;;6.95;3.92;;;;;;;;;;5019797;28;20096;-82
2024/01/28 12:43:37;;;;;;;10.55;4.07;;;;;;;;;;5019650;28;20171;-81
2024/01/28 12:46:03;;;;;;;7.80;4.28;;;;;;;;;;5021139;28;20057;-82
2024/01/28 12:48:29;;;;;;;8.70;4.22;;;;;;;;;;5021831;28;20044;-82
2024/01/28 12:50:54;;;;;;;8.85;4.15;;;;;;;;;;5019729;28;20033;-82
2024/01/28 12:53:20;;;;;;;9.63;4.55;;;;;;;;;;5023960;28;20025;-82
2024/01/28 12:55:46;;;;;;;9.40;4.78;;;;;;;;;;5017549;28;20026;-82
2024/01/28 12:58:12;;;;;;;8.45;4.25;;;;;;;;;;5021706;28;20462;-82
2024/01/28 13:00:38;;;;;;;9.93;4.72;;;;;;;;;;5019763;28;20032;-82
2024/01/28 13:03:04;;;;;;;6.82;4.28;;;;;;;;;;5009141;28;20037;-82
2024/01/28 13:05:29;;;;;;;7.30;4.35;;;;;;;;;;5022790;28;20036;-82
2024/01/28 13:07:55;;;;;;;8.88;4.35;;;;;;;;;;5015259;28;20072;-82
2024/01/28 13:10:20;;;;;;;7.30;4.22;;;;;;;;;;5016571;28;20487;-82
2024/01/28 13:12:46;;;;;;;9.10;4.63;;;;;;;;;;5010520;28;20029;-81
2024/01/28 13:15:11;;;;;;;9.70;4.88;;;;;;;;;;5019162;28;20026;-82
2024/01/28 13:17:39;;;;;;;8.10;4.25;;;;;;;;;;4996113;28;20128;-81
2024/01/28 13:20:07;;;;;;;7.70;4.60;;;;;;;;;;5010810;28;20371;-81
2024/01/28 13:22:34;;;;;;;10.13;4.47;;;;;;;;;;5010877;28;20039;-82
2024/01/28 13:25:00;;;;;;;7.18;4.18;;;;;;;;;;5013550;28;21248;-81
2024/01/28 13:27:26;;;;;;;7.72;4.47;;;;;;;;;;5039020;28;20025;-82
2024/01/28 13:29:53;;;;;;;7.82;4.68;;;;;;;;;;5014422;28;20048;-81
2024/01/28 13:32:18;;;;;;;9.45;4.22;;;;;;;;;;5013925;28;20147;-81
2024/01/28 13:34:45;;;;;;;9.35;4.15;;;;;;;;;;5006041;28;20538;-81
2024/01/28 13:37:11;;;;;;;13.38;4.63;;;;;;;;;;5014599;28;20045;-81
2024/01/28 13:39:39;;;;;;;9.40;4.70;;;;;;;;;;4999331;28;20038;-84
2024/01/28 13:42:05;;;;;;;6.97;4.80;;;;;;;;;;5011481;28;20163;-83
2024/01/28 13:44:31;;;;;;;7.57;4.35;;;;;;;;;;5003467;28;20029;-83
2024/01/28 13:47:00;;;;;;;7.88;4.38;;;;;;;;;;5020205;28;20036;-83
2024/01/28 13:49:25;;;;;;;8.57;4.28;;;;;;;;;;5011904;28;20025;-82
2024/01/28 13:51:51;;;;;;;8.93;4.10;;;;;;;;;;5014908;28;20545;-82
2024/01/28 13:54:17;;;;;;;8.43;4.60;;;;;;;;;;5000985;28;20500;-83
2024/01/28 13:56:43;;;;;;;9.30;4.65;;;;;;;;;;5006962;28;20566;-85
2024/01/28 13:59:09;;;;;;;6.25;3.95;;;;;;;;;;5009047;28;20043;-83
2024/01/28 14:01:34;;;;;;;11.23;4.55;;;;;;;;;;5011091;28;20067;-83
2024/01/28 14:04:01;;;;;;;7.75;4.05;;;;;;;;;;5012148;28;20729;-83
2024/01/28 14:06:29;;;;;;;8.23;4.20;;;;;;;;;;5004532;28;20021;-83
2024/01/28 14:08:55;;;;;;;7.63;4.47;;;;;;;;;;5008316;28;20037;-83
2024/01/28 14:11:20;;;;;;;8.05;4.30;;;;;;;;;;5015014;28;20034;-83
2024/01/28 14:13:48;;;;;;;7.50;4.10;;;;;;;;;;5008220;28;20041;-82
2024/01/28 14:16:15;;;;;;;9.73;4.18;;;;;;;;;;5014744;28;20025;-83
2024/01/28 14:18:41;;;;;;;9.10;4.68;;;;;;;;;;5012613;28;20116;-82
2024/01/28 14:21:10;;;;;;;6.90;4.25;;;;;;;;;;5009489;28;20036;-82
2024/01/28 14:23:35;;;;;;;8.23;4.20;;;;;;;;;;5013347;28;20444;-82
2024/01/28 14:26:01;;;;;;;11.05;4.55;;;;;;;;;;5015075;28;20037;-83
2024/01/28 14:28:28;;;;;;;9.25;4.40;;;;;;;;;;5025781;28;20029;-83